Portada
METAR-TAF:

METAR-TAF

Aeropuertos :

Bagdad, Iraq

Aeropuerto Internacional de Bagdad

latitud: 33-15-45N, longitud: 44-14-04E, altitud: 35 m

Observación

El informe se hizo hace 26 minutos, a las 14:30 UTC
Viento 3 kt del oeste-noroeste, variando entre oeste y norte-noroeste
Temperatura 16°C
Humedad 39%
Presión 1022 hPa
Visibilidad 10 km o más
sin nubes por debajo de 1500 m y sin presencia de cumulonimbus.

METAR: ORBI 241430Z 30003KT 270V330 CAVOK 16/02 Q1022

Hora: 17:56 (14:56 UTC)

Pronóstico

El informe se hizo hace 4 horas y 56 minutos, a las 10:00 UTC
Pronóstico válido del 24 a las 12 UTC al 25 a las 12 UTC
Viento 7 kt del oeste
Visibilidad 10 km o más
sin nubes por debajo de 1500 m y sin presencia de cumulonimbus.
Evolucionando progresivamente
del 24 a las 20 UTC al 24 a las 22 UTC
Viento 6 kt del sur
Visibilidad: 8000 m
Escasas nubes a una altura de 3500 ft

TAF: ORBI 241000Z 2412/2512 27007KT CAVOK BECMG 2420/2422 18006KT 8000 FEW035

Observaciones y pronósticos meteorológicos de más de 4000 aeropuertos (mensajes METAR y TAF).

Los puntos amarillos y rojos representan las estaciones disponibles.

Ponga el ratón en el punto deseado para ver el nombre de la estación.

Haga clic para ver las observaciones y los pronósticos meteorológicos.

Para cambiar el mapa : haga clic en los botones verdes con una cruz de color negro para hacer un zoom, en el botón verde con un guión para alejar o en las flechas verdes para mapas adyacentes.


METAR-TAF: